Time;durP1;ratioP1;P1;durP2;ratioP2;P2;SDS_P1;SDS_P2;PMS_P1;PMS_P2;Temp;Humidity;BMP_temperature;BMP_pressure;BME280_temperature;BME280_humidity;BME280_pressure;Samples;Min_cycle;Max_cycle;Signal;HPM_P1;HPM_P2
2023/07/28 00:00:54;;;;;;;0.77;0.70;;;;;;;20.55;43.84;99657.63;4972980;28;20027;-85
2023/07/28 00:03:19;;;;;;;1.23;1.13;;;;;;;20.39;43.58;99651.44;4972500;28;20026;-85
2023/07/28 00:05:45;;;;;;;2.20;1.30;;;;;;;20.17;44.01;99641.03;4967763;28;20466;-84
2023/07/28 00:08:10;;;;;;;2.95;1.08;;;;;;;19.99;44.54;99645.63;4953448;29;20086;-85
2023/07/28 00:10:42;;;;;;;0.95;0.82;;;;;;;20.32;44.14;99669.66;4957206;28;20114;-86
2023/07/28 00:13:08;;;;;;;0.70;0.52;;;;;;;20.00;44.15;99663.41;4972570;28;20035;-85
2023/07/28 00:15:34;;;;;;;0.85;0.60;;;;;;;19.97;44.16;99661.78;4980166;28;20122;-85
2023/07/28 00:18:01;;;;;;;0.63;0.63;;;;;;;19.78;44.47;99655.66;4966444;28;20038;-85
2023/07/28 00:20:27;;;;;;;1.08;0.95;;;;;;;19.85;44.73;99667.78;4972814;28;20133;-85
2023/07/28 00:22:53;;;;;;;0.65;0.57;;;;;;;19.76;44.81;99666.44;4973512;28;20505;-86
2023/07/28 00:25:18;;;;;;;1.95;1.63;;;;;;;19.72;44.55;99643.44;4971522;28;20073;-85
2023/07/28 00:27:44;;;;;;;0.70;0.70;;;;;;;19.93;44.10;99678.09;4971808;28;20034;-85
2023/07/28 00:30:10;;;;;;;2.80;1.10;;;;;;;19.95;44.33;99654.75;4970982;28;20103;-86
2023/07/28 00:32:36;;;;;;;1.13;0.55;;;;;;;19.72;44.20;99656.81;4966698;28;20042;-86
2023/07/28 00:35:02;;;;;;;0.40;0.40;;;;;;;19.87;44.29;99670.38;4967168;28;20441;-86
2023/07/28 00:37:28;;;;;;;0.50;0.50;;;;;;;19.94;44.33;99663.72;4964234;28;20130;-85
2023/07/28 00:39:53;;;;;;;2.90;0.82;;;;;;;19.96;43.73;99656.50;4971597;28;20113;-85
2023/07/28 00:42:19;;;;;;;1.38;1.13;;;;;;;20.15;43.37;99659.03;4972690;28;20096;-86
2023/07/28 00:44:44;;;;;;;1.45;1.23;;;;;;;20.17;42.94;99657.13;4971923;28;20492;-86
2023/07/28 00:47:10;;;;;;;0.32;0.30;;;;;;;19.77;44.38;99629.84;4973199;28;20416;-86
2023/07/28 00:49:36;;;;;;;1.20;1.00;;;;;;;19.83;43.96;99649.13;4954237;28;20050;-84
2023/07/28 00:52:02;;;;;;;0.50;0.47;;;;;;;19.95;44.22;99649.41;4991614;28;20888;-85
2023/07/28 00:54:28;;;;;;;0.85;0.77;;;;;;;20.02;44.26;99666.88;4991266;28;20125;-85
2023/07/28 00:56:53;;;;;;;0.40;0.38;;;;;;;19.82;44.46;99635.84;4974321;28;20576;-85
2023/07/28 00:59:20;;;;;;;0.90;0.80;;;;;;;20.09;43.94;99673.59;4971614;28;20142;-85
2023/07/28 01:01:45;;;;;;;1.58;1.48;;;;;;;19.95;44.19;99649.41;4959357;28;20066;-85
2023/07/28 01:04:11;;;;;;;1.50;1.00;;;;;;;20.03;44.25;99663.22;4952921;29;20029;-84
2023/07/28 01:07:21;;;;;;;1.08;0.98;;;;;;;19.77;44.63;99665.53;4951535;28;20118;-85
2023/07/28 01:09:56;;;;;;;0.65;0.65;;;;;;;19.70;44.81;99642.66;4944655;29;20531;-85
2023/07/28 01:12:24;;;;;;;0.77;0.77;;;;;;;19.72;45.18;99647.94;4950638;29;20043;-85
2023/07/28 01:14:49;;;;;;;1.70;0.85;;;;;;;19.72;45.37;99661.31;4950065;29;20094;-85
2023/07/28 01:17:15;;;;;;;1.35;1.25;;;;;;;19.68;46.04;99658.81;4949833;29;20125;-86
2023/07/28 01:19:40;;;;;;;1.00;0.75;;;;;;;19.64;45.79;99656.38;4948430;29;20038;-85
2023/07/28 01:22:11;;;;;;;0.95;0.70;;;;;;;19.46;46.55;99661.75;4949334;29;20047;-85
2023/07/28 01:25:07;;;;;;;1.02;0.93;;;;;;;19.37;46.82;99658.69;4926374;29;20078;-85
2023/07/28 01:27:33;;;;;;;0.60;0.60;;;;;;;19.14;47.00;99632.19;4930796;29;20191;-84
2023/07/28 01:29:58;;;;;;;2.10;1.90;;;;;;;19.13;47.47;99626.94;4930489;29;20206;-85
2023/07/28 01:32:24;;;;;;;0.50;0.50;;;;;;;19.47;46.99;99655.44;4930927;29;20043;-85
2023/07/28 01:34:49;;;;;;;0.82;0.73;;;;;;;19.06;47.15;99617.47;4931342;29;20040;-84
2023/07/28 01:37:15;;;;;;;1.13;0.90;;;;;;;19.33;47.51;99657.97;4930759;29;20046;-85
2023/07/28 01:39:40;;;;;;;1.05;0.70;;;;;;;19.02;48.01;99643.50;4930851;29;20031;-85
2023/07/28 01:42:06;;;;;;;1.13;0.90;;;;;;;19.43;47.61;99655.69;4930626;29;20059;-85
2023/07/28 01:44:31;;;;;;;0.50;0.50;;;;;;;19.07;48.10;99673.53;4963757;28;20047;-85
2023/07/28 01:46:57;;;;;;;1.00;0.70;;;;;;;19.28;47.56;99668.06;4957117;28;20111;-85
2023/07/28 01:49:22;;;;;;;2.05;1.00;;;;;;;19.38;47.47;99663.09;4984828;28;20033;-85
2023/07/28 01:51:48;;;;;;;0.80;0.80;;;;;;;19.30;47.23;99644.78;4969890;28;20061;-84
2023/07/28 01:54:13;;;;;;;1.42;1.15;;;;;;;18.96;47.34;99633.13;4978116;28;20109;-85
2023/07/28 01:56:39;;;;;;;1.85;1.20;;;;;;;19.16;47.87;99674.91;4989356;28;20035;-85
2023/07/28 01:59:04;;;;;;;0.47;0.47;;;;;;;18.84;48.00;99633.72;4977783;28;20125;-85
2023/07/28 02:01:29;;;;;;;3.80;2.38;;;;;;;18.83;48.40;99653.34;4954743;28;20035;-84
2023/07/28 02:03:55;;;;;;;0.57;0.57;;;;;;;18.91;48.64;99684.16;4984669;28;20515;-84
2023/07/28 02:06:20;;;;;;;2.90;0.80;;;;;;;18.61;49.71;99687.34;4971411;28;20481;-84
2023/07/28 02:08:46;;;;;;;0.55;0.55;;;;;;;18.56;49.04;99665.31;4970918;28;20496;-84
2023/07/28 02:11:11;;;;;;;1.33;1.23;;;;;;;18.43;49.87;99654.38;4971122;28;20052;-84
2023/07/28 02:13:37;;;;;;;2.25;2.03;;;;;;;18.65;49.66;99696.06;4971706;28;20066;-83
2023/07/28 02:16:02;;;;;;;1.48;1.38;;;;;;;18.63;49.67;99707.75;4971202;28;20034;-84
2023/07/28 02:18:27;;;;;;;1.70;1.60;;;;;;;18.50;49.75;99678.13;4972857;28;20485;-85
2023/07/28 02:20:53;;;;;;;1.55;0.95;;;;;;;18.69;49.46;99695.00;4973909;28;20526;-84
2023/07/28 02:23:18;;;;;;;0.98;0.95;;;;;;;18.79;49.13;99682.03;4975311;28;20357;-85
2023/07/28 02:25:44;;;;;;;1.23;1.15;;;;;;;18.87;48.77;99695.91;4974931;28;20027;-84
2023/07/28 02:28:11;;;;;;;1.65;1.55;;;;;;;19.01;48.72;99683.69;4974597;28;20037;-85
2023/07/28 02:30:36;;;;;;;0.88;0.60;;;;;;;18.87;48.47;99663.00;4974043;28;20035;-85
2023/07/28 02:33:02;;;;;;;3.03;1.05;;;;;;;19.10;48.77;99700.13;4974413;28;20077;-85
2023/07/28 02:35:28;;;;;;;1.35;0.88;;;;;;;19.05;49.11;99707.50;4975250;28;20432;-85
2023/07/28 02:37:53;;;;;;;0.68;0.65;;;;;;;18.85;49.33;99687.13;4974762;28;20059;-85
2023/07/28 02:40:19;;;;;;;2.05;1.40;;;;;;;18.83;49.73;99686.31;4974057;28;20109;-86
2023/07/28 02:42:44;;;;;;;0.68;0.63;;;;;;;18.79;49.17;99690.91;4974373;28;20045;-83
2023/07/28 02:45:10;;;;;;;0.70;0.70;;;;;;;18.58;49.76;99706.19;4973660;28;20583;-84
2023/07/28 02:47:36;;;;;;;1.27;1.20;;;;;;;18.30;50.29;99700.44;4973991;28;20035;-84
2023/07/28 02:50:01;;;;;;;1.00;1.00;;;;;;;18.16;50.57;99698.41;4986236;28;20420;-84
2023/07/28 02:52:27;;;;;;;1.52;0.90;;;;;;;18.12;51.21;99692.34;4993860;28;20026;-84
2023/07/28 02:54:52;;;;;;;1.15;0.57;;;;;;;18.20;51.28;99702.66;4993784;28;20608;-85
2023/07/28 02:57:18;;;;;;;1.13;0.98;;;;;;;18.31;51.06;99704.84;4975745;28;20130;-84
2023/07/28 02:59:43;;;;;;;0.98;0.98;;;;;;;18.36;50.63;99706.34;4975043;28;20122;-84
2023/07/28 03:02:08;;;;;;;0.45;0.45;;;;;;;18.31;50.95;99696.81;4990794;28;20188;-84
2023/07/28 03:04:34;;;;;;;1.50;1.15;;;;;;;18.35;50.70;99706.41;4984529;28;20128;-84
2023/07/28 03:06:59;;;;;;;0.98;0.80;;;;;;;18.33;50.96;99708.28;4973802;28;20512;-84
2023/07/28 03:09:25;;;;;;;1.02;0.85;;;;;;;18.15;50.85;99693.97;4974206;28;20037;-86
2023/07/28 03:11:50;;;;;;;2.92;2.28;;;;;;;18.28;50.49;99688.97;4974376;28;20038;-85
2023/07/28 03:14:17;;;;;;;0.77;0.77;;;;;;;18.16;51.25;99703.75;4956648;28;20125;-84
2023/07/28 03:16:42;;;;;;;1.60;1.05;;;;;;;18.02;51.56;99699.88;4959156;28;20026;-85
2023/07/28 03:19:08;;;;;;;1.65;0.93;;;;;;;18.02;52.15;99707.03;4973525;28;20117;-85
2023/07/28 03:21:33;;;;;;;1.08;0.70;;;;;;;18.07;52.14;99715.69;4974915;28;20050;-86
2023/07/28 03:23:59;;;;;;;1.40;0.98;;;;;;;17.98;51.47;99716.09;4973328;28;20073;-84
2023/07/28 03:26:25;;;;;;;1.15;0.95;;;;;;;17.79;51.74;99732.06;4973572;28;20547;-85
2023/07/28 03:28:50;;;;;;;1.50;1.40;;;;;;;17.74;51.95;99732.25;4972957;28;20041;-85
2023/07/28 03:31:16;;;;;;;1.10;1.00;;;;;;;17.53;52.30;99718.03;4973056;28;20027;-85
2023/07/28 03:33:43;;;;;;;1.15;0.90;;;;;;;17.64;52.60;99726.47;4973016;28;20504;-87
2023/07/28 03:36:08;;;;;;;2.45;0.90;;;;;;;17.30;53.41;99735.91;4973682;28;20113;-87
2023/07/28 03:38:34;;;;;;;1.00;0.90;;;;;;;17.20;53.83;99731.03;4991551;28;20030;-88
2023/07/28 03:40:59;;;;;;;1.40;1.30;;;;;;;17.17;53.57;99719.53;4989341;28;20057;-86
2023/07/28 03:43:25;;;;;;;1.52;1.38;;;;;;;17.29;53.60;99739.50;4973792;28;20065;-85
2023/07/28 03:45:50;;;;;;;1.55;1.00;;;;;;;17.31;53.61;99739.44;4969038;28;20033;-86
2023/07/28 03:48:16;;;;;;;1.42;1.35;;;;;;;17.67;53.04;99753.00;4969489;28;20121;-87
2023/07/28 03:50:42;;;;;;;1.80;1.50;;;;;;;17.54;53.59;99754.47;4972423;28;20026;-85
2023/07/28 03:53:08;;;;;;;6.60;1.30;;;;;;;17.68;53.11;99759.19;4973019;28;20031;-84
2023/07/28 03:55:34;;;;;;;1.23;0.98;;;;;;;17.49;52.96;99725.31;4972730;28;20041;-87
2023/07/28 03:57:59;;;;;;;3.95;3.00;;;;;;;17.65;53.33;99732.66;4972339;28;20026;-85
2023/07/28 04:00:25;;;;;;;1.92;1.65;;;;;;;17.61;53.49;99739.03;4982994;28;20027;-86
2023/07/28 04:02:50;;;;;;;2.53;1.70;;;;;;;17.85;53.23;99769.13;4973745;28;20097;-85
2023/07/28 04:05:16;;;;;;;1.65;1.30;;;;;;;17.84;53.24;99746.03;4973102;28;20034;-87
2023/07/28 04:07:41;;;;;;;1.92;1.20;;;;;;;18.01;52.99;99751.56;4964562;28;20129;-85
2023/07/28 04:10:07;;;;;;;2.88;0.95;;;;;;;17.95;52.84;99746.50;4985798;28;20030;-85
2023/07/28 04:12:33;;;;;;;1.80;1.40;;;;;;;18.22;52.93;99775.53;4973912;28;20043;-85
2023/07/28 04:14:58;;;;;;;1.60;1.17;;;;;;;18.12;52.91;99759.06;4971759;28;20150;-86
2023/07/28 04:17:24;;;;;;;2.03;1.10;;;;;;;18.30;52.89;99773.38;4971464;28;20039;-87
2023/07/28 04:19:49;;;;;;;3.08;1.17;;;;;;;18.27;53.04;99783.34;4971895;28;20022;-83
2023/07/28 04:22:20;;;;;;;1.90;1.42;;;;;;;18.36;52.77;99782.91;4966723;28;20500;-84
2023/07/28 04:24:47;;;;;;;1.55;1.45;;;;;;;18.58;52.73;99789.00;4971818;28;20034;-84
2023/07/28 04:27:12;;;;;;;2.35;1.17;;;;;;;18.53;52.89;99779.47;4971288;28;20023;-84
2023/07/28 04:29:38;;;;;;;2.28;1.38;;;;;;;18.47;52.28;99750.38;4971405;28;20113;-84
2023/07/28 04:32:04;;;;;;;2.67;1.73;;;;;;;18.53;52.67;99780.31;4970206;28;20404;-84
2023/07/28 04:34:29;;;;;;;3.05;1.67;;;;;;;18.50;52.45;99767.13;4970804;28;20032;-85
2023/07/28 04:36:54;;;;;;;3.30;1.92;;;;;;;18.65;51.72;99757.53;4971359;28;20109;-86
2023/07/28 04:39:20;;;;;;;1.30;1.20;;;;;;;19.03;51.10;99781.59;4975499;28;20057;-86
2023/07/28 04:41:45;;;;;;;1.70;1.20;;;;;;;19.16;50.80;99779.16;4971565;28;20035;-85
2023/07/28 04:44:11;;;;;;;2.25;1.02;;;;;;;19.32;49.77;99785.50;4971029;28;20038;-87
2023/07/28 04:46:36;;;;;;;2.45;2.25;;;;;;;19.35;49.30;99796.97;4970742;28;20365;-86
2023/07/28 04:49:02;;;;;;;1.20;1.10;;;;;;;19.24;50.04;99755.56;4967131;28;20031;-87
2023/07/28 04:51:28;;;;;;;1.40;1.30;;;;;;;19.57;48.93;99780.69;4964318;28;20488;-87
2023/07/28 04:53:53;;;;;;;5.30;1.85;;;;;;;19.58;48.69;99751.19;4952876;29;20039;-86
2023/07/28 04:56:19;;;;;;;1.98;1.67;;;;;;;19.84;48.65;99779.31;4958035;28;20485;-87
2023/07/28 04:58:44;;;;;;;1.33;1.13;;;;;;;19.75;47.77;99770.88;4972075;28;20038;-87
2023/07/28 05:01:10;;;;;;;2.22;1.42;;;;;;;19.95;47.47;99767.19;4963824;28;20413;-87
2023/07/28 05:03:35;;;;;;;1.30;0.95;;;;;;;20.00;46.25;99755.31;4974173;28;20034;-86
2023/07/28 05:06:03;;;;;;;2.75;1.25;;;;;;;20.24;46.93;99780.84;4968702;28;20045;-85
2023/07/28 05:08:29;;;;;;;2.33;1.80;;;;;;;20.57;46.33;99779.03;4970107;28;20049;-86
2023/07/28 05:10:56;;;;;;;5.72;2.33;;;;;;;20.59;45.62;99786.97;4971524;28;20501;-86
2023/07/28 05:13:22;;;;;;;2.70;1.27;;;;;;;20.74;45.33;99783.47;4971396;28;20680;-85
2023/07/28 05:15:47;;;;;;;2.90;1.98;;;;;;;20.86;44.63;99789.94;4971681;28;20030;-85
2023/07/28 05:18:12;;;;;;;1.05;0.77;;;;;;;20.96;44.41;99773.34;4962373;28;20050;-86
2023/07/28 05:20:38;;;;;;;1.42;0.85;;;;;;;21.02;43.04;99781.03;4952053;29;20442;-85
2023/07/28 05:23:03;;;;;;;3.88;2.42;;;;;;;21.02;43.25;99771.19;4952420;29;20023;-85
2023/07/28 05:25:29;;;;;;;1.17;0.98;;;;;;;21.21;42.33;99786.19;4952146;29;20031;-86
2023/07/28 05:27:54;;;;;;;2.60;0.73;;;;;;;21.49;41.55;99790.88;4969781;28;20489;-86
2023/07/28 05:30:20;;;;;;;1.85;1.00;;;;;;;21.59;40.94;99793.88;4970857;28;20039;-85
2023/07/28 05:32:47;;;;;;;16.27;0.90;;;;;;;21.77;40.45;99784.72;4971421;28;20035;-86
2023/07/28 05:35:12;;;;;;;1.15;0.90;;;;;;;21.79;39.90;99792.69;4970808;28;20109;-86
2023/07/28 05:37:38;;;;;;;0.80;0.80;;;;;;;22.15;39.47;99788.72;4971316;28;20141;-85
2023/07/28 05:40:04;;;;;;;1.88;0.88;;;;;;;22.54;39.43;99797.97;4961668;28;20035;-86
2023/07/28 05:42:29;;;;;;;0.52;0.52;;;;;;;22.89;39.31;99790.34;4951955;29;20098;-86
2023/07/28 05:44:55;;;;;;;1.70;1.10;;;;;;;23.20;38.87;99809.00;4952236;29;20031;-86
2023/07/28 05:47:20;;;;;;;0.60;0.60;;;;;;;23.24;38.37;99792.56;4952356;28;20035;-86
2023/07/28 05:49:46;;;;;;;0.82;0.70;;;;;;;23.70;37.93;99812.00;4970915;28;20065;-86
2023/07/28 05:52:12;;;;;;;0.65;0.65;;;;;;;23.19;38.46;99781.25;4971561;28;20469;-86
2023/07/28 05:54:37;;;;;;;1.30;1.20;;;;;;;23.43;37.37;99799.41;4974729;28;20022;-85
2023/07/28 05:57:03;;;;;;;0.88;0.85;;;;;;;23.86;37.16;99785.75;4975149;28;20428;-87
2023/07/28 05:59:29;;;;;;;0.82;0.80;;;;;;;24.08;37.20;99781.59;4975118;28;20112;-87
2023/07/28 06:01:55;;;;;;;1.13;1.02;;;;;;;24.34;36.61;99793.22;4974274;28;20035;-87
2023/07/28 06:04:20;;;;;;;0.50;0.50;;;;;;;24.66;36.02;99798.19;4974881;28;20037;-86
2023/07/28 06:06:46;;;;;;;1.50;1.40;;;;;;;24.52;35.88;99806.38;4975251;28;20476;-87
2023/07/28 06:09:11;;;;;;;0.82;0.70;;;;;;;24.58;35.88;99820.31;4975159;28;20034;-84
2023/07/28 06:11:37;;;;;;;1.98;1.38;;;;;;;24.92;36.63;99809.78;4974649;28;20408;-82
2023/07/28 06:14:02;;;;;;;0.95;0.75;;;;;;;25.16;34.97;99808.94;4974666;28;20480;-84
2023/07/28 06:16:28;;;;;;;1.58;1.05;;;;;;;25.42;34.71;99806.19;4974152;28;20034;-85
2023/07/28 06:18:53;;;;;;;2.33;1.40;;;;;;;25.29;34.64;99782.81;4970936;28;20046;-85
2023/07/28 06:21:18;;;;;;;0.40;0.40;;;;;;;25.54;34.03;99789.03;4955025;29;20031;-85
2023/07/28 06:23:44;;;;;;;0.60;0.60;;;;;;;25.52;33.98;99789.16;4961759;28;20041;-86
2023/07/28 06:26:09;;;;;;;1.08;0.90;;;;;;;25.70;33.21;99783.31;4973952;28;20035;-86
2023/07/28 06:28:35;;;;;;;1.23;1.10;;;;;;;26.04;33.35;99787.03;4967874;28;20067;-86
2023/07/28 06:31:00;;;;;;;1.30;1.20;;;;;;;26.04;33.21;99788.84;4954228;29;20046;-86
2023/07/28 06:33:28;;;;;;;0.93;0.80;;;;;;;26.14;32.17;99789.00;4954596;29;20038;-86
2023/07/28 06:35:54;;;;;;;2.42;1.08;;;;;;;26.44;32.39;99805.47;4954701;28;20494;-85
2023/07/28 06:38:19;;;;;;;1.48;0.90;;;;;;;26.55;31.98;99782.97;4973494;28;20034;-86
2023/07/28 06:40:45;;;;;;;5.30;1.17;;;;;;;26.89;31.58;99790.25;4972957;28;20065;-86
2023/07/28 06:43:10;;;;;;;1.35;1.25;;;;;;;27.05;32.32;99779.00;4973336;28;20038;-88
2023/07/28 06:45:36;;;;;;;1.17;1.08;;;;;;;27.11;31.47;99763.16;4954311;28;20027;-87
2023/07/28 06:48:01;;;;;;;1.40;0.90;;;;;;;27.30;30.42;99757.03;4959760;28;20050;-88
2023/07/28 06:50:27;;;;;;;3.47;1.58;;;;;;;27.41;30.89;99774.28;4973850;28;20457;-84
2023/07/28 06:52:52;;;;;;;0.85;0.80;;;;;;;27.23;31.20;99779.34;4955632;28;20042;-85
2023/07/28 06:55:18;;;;;;;0.93;0.93;;;;;;;27.73;30.89;99766.13;4973093;28;20030;-85
2023/07/28 06:57:44;;;;;;;1.92;1.33;;;;;;;27.55;31.63;99768.53;4973007;28;20030;-86
2023/07/28 07:00:10;;;;;;;1.30;1.05;;;;;;;28.06;30.23;99774.22;4973186;28;20112;-85
2023/07/28 07:02:36;;;;;;;1.38;0.98;;;;;;;28.14;28.63;99775.22;4973902;28;20031;-87
2023/07/28 07:05:02;;;;;;;1.60;0.80;;;;;;;28.54;28.14;99779.00;4971667;28;20041;-86
2023/07/28 07:07:27;;;;;;;1.77;0.80;;;;;;;28.38;28.32;99764.09;4973307;28;20031;-86
2023/07/28 07:09:53;;;;;;;1.88;1.33;;;;;;;28.26;28.34;99732.63;4971663;28;20038;-86
2023/07/28 07:12:20;;;;;;;0.90;0.88;;;;;;;28.73;29.30;99743.84;4972683;28;20054;-86
2023/07/28 07:14:45;;;;;;;2.33;1.15;;;;;;;28.87;27.50;99749.84;4973393;28;20035;-85
2023/07/28 07:17:11;;;;;;;1.52;0.95;;;;;;;28.92;27.68;99742.16;4964747;28;20024;-88
2023/07/28 07:19:36;;;;;;;1.00;0.57;;;;;;;29.27;26.98;99763.41;4954261;29;20031;-85
2023/07/28 07:22:02;;;;;;;1.23;0.98;;;;;;;29.66;27.27;99751.66;4954030;29;20039;-86
2023/07/28 07:24:28;;;;;;;0.95;0.80;;;;;;;29.86;26.23;99766.13;4954141;29;20077;-85
2023/07/28 07:26:54;;;;;;;1.55;1.05;;;;;;;28.94;27.23;99738.28;4970585;28;20026;-85
2023/07/28 07:29:19;;;;;;;1.23;0.77;;;;;;;28.78;27.22;99759.72;4973237;28;20031;-84
2023/07/28 07:31:45;;;;;;;2.05;1.23;;;;;;;29.10;27.72;99748.63;4973080;28;20608;-84
2023/07/28 07:34:10;;;;;;;0.82;0.82;;;;;;;29.41;26.08;99740.38;4973452;28;20417;-85
2023/07/28 07:36:36;;;;;;;0.75;0.65;;;;;;;29.72;26.57;99745.66;4973209;28;20037;-85
2023/07/28 07:39:01;;;;;;;3.53;1.80;;;;;;;29.54;25.98;99742.78;4954509;28;20157;-85
2023/07/28 07:41:26;;;;;;;0.30;0.30;;;;;;;29.46;26.55;99743.53;4953668;29;20059;-85
2023/07/28 07:43:54;;;;;;;0.60;0.60;;;;;;;29.77;26.98;99726.19;4953970;29;20039;-86
2023/07/28 07:46:19;;;;;;;1.23;1.08;;;;;;;30.18;26.05;99737.69;4953703;29;20170;-83
2023/07/28 07:48:46;;;;;;;1.98;1.13;;;;;;;30.07;26.65;99733.28;4953945;29;20118;-82
2023/07/28 07:51:12;;;;;;;3.40;0.75;;;;;;;30.35;27.14;99733.31;4970367;28;20045;-85
2023/07/28 07:53:37;;;;;;;2.20;1.15;;;;;;;30.74;24.80;99757.69;4973120;28;20042;-85
2023/07/28 07:56:04;;;;;;;1.73;1.05;;;;;;;30.67;26.11;99732.06;4972646;28;20043;-85
2023/07/28 07:58:30;;;;;;;1.05;0.95;;;;;;;30.56;27.19;99737.72;4972610;28;20238;-85
2023/07/28 08:00:56;;;;;;;0.73;0.60;;;;;;;30.04;25.98;99727.28;4973005;28;20122;-84
2023/07/28 08:03:22;;;;;;;0.60;0.45;;;;;;;30.67;24.79;99749.25;4972563;28;20512;-84
2023/07/28 08:05:47;;;;;;;1.10;0.80;;;;;;;30.09;26.44;99735.84;4972690;28;20062;-82
2023/07/28 08:08:16;;;;;;;1.52;1.33;;;;;;;30.18;24.97;99729.53;4972544;28;20386;-85
2023/07/28 08:10:52;;;;;;;0.40;0.35;;;;;;;30.22;27.11;99711.91;4972964;28;20424;-85
2023/07/28 08:13:17;;;;;;;0.93;0.50;;;;;;;30.57;24.73;99733.97;4972372;28;20524;-84
2023/07/28 08:15:43;;;;;;;0.68;0.47;;;;;;;30.62;25.58;99724.34;4972312;28;20078;-82
2023/07/28 08:18:10;;;;;;;1.50;0.70;;;;;;;30.43;25.98;99733.47;4972327;28;20508;-83
2023/07/28 08:20:36;;;;;;;1.42;0.70;;;;;;;30.77;23.85;99719.25;4966200;28;20047;-83
2023/07/28 08:23:01;;;;;;;0.40;0.40;;;;;;;30.88;23.75;99713.59;4952813;29;20027;-84
2023/07/28 08:25:27;;;;;;;1.63;0.75;;;;;;;31.20;23.43;99720.41;4935487;29;20035;-83
2023/07/28 08:27:52;;;;;;;17.23;1.50;;;;;;;31.40;23.04;99684.81;4953137;29;20038;-84
2023/07/28 08:30:18;;;;;;;0.82;0.77;;;;;;;31.20;23.49;99690.44;4952871;29;20055;-84
2023/07/28 08:32:44;;;;;;;12.07;0.90;;;;;;;31.54;23.71;99686.16;4952693;29;20054;-84
2023/07/28 08:35:10;;;;;;;0.50;0.30;;;;;;;31.52;25.02;99694.44;4968843;28;20489;-83
2023/07/28 08:37:35;;;;;;;1.58;0.68;;;;;;;31.54;23.53;99697.03;4972214;28;20039;-82
2023/07/28 08:40:02;;;;;;;1.17;0.90;;;;;;;31.19;24.99;99704.22;4971184;28;20027;-86
2023/07/28 08:42:30;;;;;;;1.88;0.95;;;;;;;31.48;24.95;99695.78;4965237;28;20433;-83
2023/07/28 08:44:55;;;;;;;0.60;0.60;;;;;;;30.90;24.18;99686.22;4952003;29;20027;-83
2023/07/28 08:47:21;;;;;;;2.38;0.82;;;;;;;30.32;25.06;99685.53;4964106;28;20027;-85
2023/07/28 08:49:47;;;;;;;0.60;0.60;;;;;;;30.27;26.75;99692.41;4967780;28;20493;-86
2023/07/28 08:52:16;;;;;;;1.27;0.85;;;;;;;30.09;28.17;99698.66;4951807;29;20031;-85
2023/07/28 08:54:43;;;;;;;0.65;0.55;;;;;;;30.87;26.14;99694.69;4952071;28;20436;-88
2023/07/28 08:57:10;;;;;;;0.63;0.63;;;;;;;31.17;23.89;99671.69;4971095;28;20027;-88
2023/07/28 08:59:36;;;;;;;1.08;0.65;;;;;;;31.48;23.84;99682.16;4971839;28;20130;-86
2023/07/28 09:02:01;;;;;;;1.00;0.77;;;;;;;31.42;24.70;99653.66;4971157;28;20031;-86
2023/07/28 09:04:28;;;;;;;1.45;0.90;;;;;;;31.45;22.97;99685.22;4971086;28;20483;-84
2023/07/28 09:06:53;;;;;;;1.02;0.70;;;;;;;30.52;23.18;99669.09;4970971;28;20096;-85
2023/07/28 09:09:24;;;;;;;1.33;1.02;;;;;;;30.59;25.03;99669.38;4970308;28;20465;-82
2023/07/28 09:11:54;;;;;;;1.05;0.77;;;;;;;31.05;23.41;99681.13;4986479;28;20398;-84
2023/07/28 09:14:21;;;;;;;1.13;0.47;;;;;;;31.06;25.48;99666.47;4969948;28;20437;-84
2023/07/28 09:16:47;;;;;;;1.60;0.98;;;;;;;31.21;22.97;99664.06;4970609;28;20031;-85
2023/07/28 09:19:13;;;;;;;0.93;0.70;;;;;;;31.67;24.98;99664.78;4951260;28;20042;-84
2023/07/28 09:21:42;;;;;;;0.80;0.80;;;;;;;31.65;22.56;99661.34;4955104;28;20038;-83
2023/07/28 09:24:10;;;;;;;1.00;0.70;;;;;;;30.89;23.98;99665.41;4963388;28;20023;-84
2023/07/28 09:26:44;;;;;;;3.50;0.68;;;;;;;31.07;24.19;99662.75;4958432;28;20059;-86
2023/07/28 09:29:20;;;;;;;0.30;0.30;;;;;;;30.93;23.21;99644.22;4969696;28;20038;-91
2023/07/28 09:31:47;;;;;;;1.08;0.98;;;;;;;30.82;23.71;99651.59;4970600;28;20523;-86
2023/07/28 09:34:22;;;;;;;0.93;0.57;;;;;;;31.00;25.09;99645.31;4970394;28;20489;-85
2023/07/28 09:36:48;;;;;;;0.77;0.40;;;;;;;31.53;24.23;99635.34;4970799;28;20508;-84
2023/07/28 09:39:14;;;;;;;0.50;0.32;;;;;;;31.51;23.97;99638.25;4969665;28;20121;-83
2023/07/28 09:41:44;;;;;;;0.43;0.35;;;;;;;32.27;22.59;99628.47;4970933;28;20421;-85
2023/07/28 09:44:09;;;;;;;0.98;0.52;;;;;;;32.58;20.19;99641.53;4955796;28;20039;-83
2023/07/28 09:46:38;;;;;;;0.65;0.45;;;;;;;32.29;21.94;99623.69;4955393;28;20097;-84
2023/07/28 09:49:12;;;;;;;1.00;0.60;;;;;;;31.87;21.16;99619.06;4970508;28;20035;-84
2023/07/28 09:51:41;;;;;;;0.22;0.22;;;;;;;32.30;20.15;99617.22;4962229;28;20577;-85
2023/07/28 09:54:15;;;;;;;1.05;0.70;;;;;;;32.56;23.12;99616.25;4976736;28;20046;-85
2023/07/28 09:56:43;;;;;;;0.65;0.65;;;;;;;32.79;22.64;99593.81;4976802;28;20049;-84
2023/07/28 09:59:12;;;;;;;4.93;1.33;;;;;;;32.39;19.83;99603.59;4982036;28;20122;-84
2023/07/28 10:01:39;;;;;;;0.40;0.40;;;;;;;32.00;20.54;99617.75;4970872;28;20061;-84
2023/07/28 10:04:05;;;;;;;1.15;0.77;;;;;;;31.66;21.06;99600.38;4969685;28;20027;-87
2023/07/28 10:06:33;;;;;;;1.88;1.33;;;;;;;31.49;20.94;99579.44;4964160;28;20480;-83
2023/07/28 10:08:59;;;;;;;1.15;0.60;;;;;;;31.95;20.07;99601.88;4976898;28;20517;-85
2023/07/28 10:11:27;;;;;;;2.63;1.08;;;;;;;32.08;19.50;99591.34;4976747;28;20058;-85
2023/07/28 10:13:54;;;;;;;1.85;0.88;;;;;;;31.93;19.74;99595.72;4976439;28;20118;-84
2023/07/28 10:16:30;;;;;;;0.98;0.63;;;;;;;31.30;20.11;99564.19;4972573;28;20110;-84
2023/07/28 10:18:56;;;;;;;3.10;2.58;;;;;;;31.46;19.97;99574.31;4970032;28;20054;-85
2023/07/28 10:21:28;;;;;;;1.20;0.68;;;;;;;31.51;19.22;99582.88;4968754;28;20031;-86
2023/07/28 10:23:58;;;;;;;1.00;0.65;;;;;;;32.11;20.12;99566.50;4968785;28;20099;-85
2023/07/28 10:26:35;;;;;;;2.05;1.00;;;;;;;32.19;20.18;99562.94;4962537;28;20089;-85
2023/07/28 10:29:11;;;;;;;1.52;1.00;;;;;;;32.40;19.97;99581.59;4955877;28;20024;-85
2023/07/28 10:31:37;;;;;;;0.75;0.47;;;;;;;32.37;19.57;99556.53;4965541;28;20033;-85
2023/07/28 10:34:03;;;;;;;0.77;0.45;;;;;;;32.25;19.11;99566.88;4969849;28;20034;-85
2023/07/28 10:36:49;;;;;;;1.55;0.50;;;;;;;32.19;19.03;99570.28;4962806;28;20081;-85
2023/07/28 10:39:17;;;;;;;0.45;0.45;;;;;;;32.23;20.43;99560.75;4952383;28;20528;-85
2023/07/28 10:42:05;;;;;;;0.95;0.60;;;;;;;32.24;24.11;99557.88;4952114;29;20047;-87
2023/07/28 10:44:32;;;;;;;2.33;1.00;;;;;;;32.72;19.96;99536.28;4939698;29;20047;-86
2023/07/28 10:46:57;;;;;;;2.88;0.63;;;;;;;32.99;18.34;99546.00;4951242;29;20043;-86
2023/07/28 10:49:26;;;;;;;0.50;0.50;;;;;;;32.91;18.13;99545.19;4947564;29;20042;-85
2023/07/28 10:51:51;;;;;;;0.75;0.75;;;;;;;32.39;18.26;99521.72;4930149;28;20139;-86
2023/07/28 10:54:19;;;;;;;1.35;0.65;;;;;;;32.23;17.96;99512.50;4946963;29;20075;-86
2023/07/28 10:56:48;;;;;;;1.75;0.70;;;;;;;32.24;18.58;99510.59;4950507;29;20566;-86
2023/07/28 10:59:15;;;;;;;0.65;0.52;;;;;;;32.01;19.46;99515.81;4952631;29;20118;-86
2023/07/28 11:01:42;;;;;;;0.32;0.30;;;;;;;32.15;18.22;99531.56;4952892;29;20082;-86
2023/07/28 11:04:25;;;;;;;1.25;0.60;;;;;;;32.08;20.62;99522.31;4952039;29;20118;-85
2023/07/28 11:06:51;;;;;;;1.52;1.20;;;;;;;32.52;20.62;99515.75;4952903;29;20042;-85
2023/07/28 11:09:19;;;;;;;2.80;1.40;;;;;;;32.91;18.18;99526.91;4935196;29;20546;-87
2023/07/28 11:11:46;;;;;;;5.53;0.98;;;;;;;32.91;17.86;99513.25;4928071;28;20043;-86
2023/07/28 11:14:11;;;;;;;3.40;1.17;;;;;;;32.63;18.67;99509.97;4960571;28;20039;-86
2023/07/28 11:16:39;;;;;;;0.98;0.77;;;;;;;33.08;17.51;99505.03;4948568;28;20363;-86
2023/07/28 11:19:12;;;;;;;0.40;0.40;;;;;;;33.14;18.33;99513.38;4959120;28;20473;-85
2023/07/28 11:21:38;;;;;;;0.63;0.50;;;;;;;32.83;20.35;99505.06;4960930;28;20043;-87
2023/07/28 11:24:05;;;;;;;0.80;0.70;;;;;;;33.13;17.33;99495.28;4961859;28;20039;-86
2023/07/28 11:26:30;;;;;;;2.97;0.45;;;;;;;33.07;17.35;99492.41;4960844;28;20062;-86
2023/07/28 11:28:57;;;;;;;1.70;0.40;;;;;;;33.33;17.99;99503.97;4955332;28;20063;-86
2023/07/28 11:31:25;;;;;;;1.05;0.80;;;;;;;33.04;18.34;99490.84;4953487;28;20035;-86